Terminal Aerodrome Forecast
Issued by NWS

Home | Current Version | Previous Version | Text Only | Print | Product List | Glossary On
Versions: 1 2 3 4 5 6 7 8 9 10 11 12 13 14 15 16 17 18 19 20 21 22 23
033
FTUS43 KDMX 220538
TAFOTM
TAF
KOTM 220538Z 2206/2306 32009KT P6SM SKC
     FM221300 VRB03KT P6SM SKC
     FM221900 22007KT P6SM FEW240
     FM230400 20009KT P6SM BKN120=

USA.gov is the U.S. government's official web portal to all federal, state and local government web resources and services.